sensor_id;sensor_type;location;lat;lon;timestamp;P1;durP1;ratioP1;P2;durP2;ratioP2
72335;SDS011;62171;48.446;8.834;2022-07-29T00:00:41;12.20;;;8.73;;
72335;SDS011;62171;48.446;8.834;2022-07-29T00:03:09;10.88;;;8.43;;
72335;SDS011;62171;48.446;8.834;2022-07-29T00:05:35;23.75;;;9.43;;
72335;SDS011;62171;48.446;8.834;2022-07-29T00:08:01;30.48;;;9.40;;
72335;SDS011;62171;48.446;8.834;2022-07-29T00:10:26;17.50;;;9.95;;
72335;SDS011;62171;48.446;8.834;2022-07-29T00:12:51;22.08;;;10.60;;
72335;SDS011;62171;48.446;8.834;2022-07-29T00:15:17;23.73;;;10.88;;
72335;SDS011;62171;48.446;8.834;2022-07-29T00:17:42;37.90;;;10.60;;
72335;SDS011;62171;48.446;8.834;2022-07-29T00:20:08;16.00;;;9.60;;
72335;SDS011;62171;48.446;8.834;2022-07-29T00:22:36;55.92;;;12.88;;
72335;SDS011;62171;48.446;8.834;2022-07-29T00:25:02;63.70;;;11.02;;
72335;SDS011;62171;48.446;8.834;2022-07-29T00:27:28;77.80;;;10.23;;
72335;SDS011;62171;48.446;8.834;2022-07-29T00:29:53;41.92;;;9.20;;
72335;SDS011;62171;48.446;8.834;2022-07-29T00:32:19;29.88;;;9.70;;
72335;SDS011;62171;48.446;8.834;2022-07-29T00:34:44;32.15;;;10.32;;
72335;SDS011;62171;48.446;8.834;2022-07-29T00:37:28;19.30;;;10.13;;
72335;SDS011;62171;48.446;8.834;2022-07-29T00:39:54;20.85;;;10.43;;
72335;SDS011;62171;48.446;8.834;2022-07-29T00:42:19;17.92;;;10.32;;
72335;SDS011;62171;48.446;8.834;2022-07-29T00:44:44;29.08;;;10.25;;
72335;SDS011;62171;48.446;8.834;2022-07-29T00:47:11;13.60;;;7.82;;
72335;SDS011;62171;48.446;8.834;2022-07-29T00:49:37;41.38;;;10.13;;
72335;SDS011;62171;48.446;8.834;2022-07-29T00:52:04;35.63;;;9.88;;
72335;SDS011;62171;48.446;8.834;2022-07-29T00:54:30;37.40;;;9.00;;
72335;SDS011;62171;48.446;8.834;2022-07-29T00:56:57;23.92;;;8.45;;
72335;SDS011;62171;48.446;8.834;2022-07-29T00:59:23;50.75;;;9.65;;
72335;SDS011;62171;48.446;8.834;2022-07-29T01:01:49;38.67;;;9.10;;
72335;SDS011;62171;48.446;8.834;2022-07-29T01:04:15;55.03;;;10.23;;
72335;SDS011;62171;48.446;8.834;2022-07-29T01:06:40;26.98;;;9.80;;
72335;SDS011;62171;48.446;8.834;2022-07-29T01:09:07;16.15;;;9.77;;
72335;SDS011;62171;48.446;8.834;2022-07-29T01:11:32;31.63;;;11.20;;
72335;SDS011;62171;48.446;8.834;2022-07-29T01:13:59;46.88;;;11.55;;
72335;SDS011;62171;48.446;8.834;2022-07-29T01:16:29;27.88;;;10.40;;
72335;SDS011;62171;48.446;8.834;2022-07-29T01:18:59;14.00;;;8.43;;
72335;SDS011;62171;48.446;8.834;2022-07-29T01:21:44;21.85;;;7.85;;
72335;SDS011;62171;48.446;8.834;2022-07-29T01:29:36;15.48;;;7.57;;
72335;SDS011;62171;48.446;8.834;2022-07-29T01:34:41;17.10;;;8.48;;
72335;SDS011;62171;48.446;8.834;2022-07-29T01:37:20;50.75;;;9.68;;
72335;SDS011;62171;48.446;8.834;2022-07-29T01:39:49;34.65;;;9.73;;
72335;SDS011;62171;48.446;8.834;2022-07-29T01:42:27;47.55;;;8.90;;
72335;SDS011;62171;48.446;8.834;2022-07-29T01:45:00;37.42;;;8.52;;
72335;SDS011;62171;48.446;8.834;2022-07-29T01:47:35;80.07;;;9.77;;
72335;SDS011;62171;48.446;8.834;2022-07-29T01:50:06;25.17;;;7.43;;
72335;SDS011;62171;48.446;8.834;2022-07-29T01:52:35;39.88;;;8.02;;
72335;SDS011;62171;48.446;8.834;2022-07-29T01:55:14;49.75;;;7.82;;
72335;SDS011;62171;48.446;8.834;2022-07-29T01:57:42;13.00;;;7.25;;
72335;SDS011;62171;48.446;8.834;2022-07-29T02:00:10;18.23;;;7.63;;
72335;SDS011;62171;48.446;8.834;2022-07-29T02:02:37;35.05;;;8.55;;
72335;SDS011;62171;48.446;8.834;2022-07-29T02:05:04;42.67;;;8.98;;
72335;SDS011;62171;48.446;8.834;2022-07-29T02:07:32;12.60;;;7.03;;
72335;SDS011;62171;48.446;8.834;2022-07-29T02:09:59;58.00;;;9.48;;
72335;SDS011;62171;48.446;8.834;2022-07-29T02:12:27;25.83;;;7.22;;
72335;SDS011;62171;48.446;8.834;2022-07-29T02:14:54;36.83;;;8.80;;
72335;SDS011;62171;48.446;8.834;2022-07-29T02:17:29;18.55;;;7.00;;
72335;SDS011;62171;48.446;8.834;2022-07-29T02:19:59;31.10;;;7.45;;
72335;SDS011;62171;48.446;8.834;2022-07-29T02:22:28;23.77;;;7.03;;
72335;SDS011;62171;48.446;8.834;2022-07-29T02:24:56;24.23;;;7.13;;
72335;SDS011;62171;48.446;8.834;2022-07-29T02:27:22;12.13;;;7.18;;
72335;SDS011;62171;48.446;8.834;2022-07-29T02:29:49;20.27;;;8.23;;
72335;SDS011;62171;48.446;8.834;2022-07-29T02:32:16;18.13;;;8.60;;
72335;SDS011;62171;48.446;8.834;2022-07-29T02:34:42;24.58;;;8.65;;
72335;SDS011;62171;48.446;8.834;2022-07-29T02:37:10;8.95;;;6.85;;
72335;SDS011;62171;48.446;8.834;2022-07-29T02:39:36;19.80;;;8.48;;
72335;SDS011;62171;48.446;8.834;2022-07-29T02:42:05;22.35;;;7.82;;
72335;SDS011;62171;48.446;8.834;2022-07-29T02:44:33;28.70;;;8.07;;
72335;SDS011;62171;48.446;8.834;2022-07-29T02:57:33;18.13;;;7.72;;
72335;SDS011;62171;48.446;8.834;2022-07-29T03:00:04;15.75;;;8.68;;
72335;SDS011;62171;48.446;8.834;2022-07-29T03:02:42;22.13;;;9.38;;
72335;SDS011;62171;48.446;8.834;2022-07-29T03:05:16;18.48;;;7.93;;
72335;SDS011;62171;48.446;8.834;2022-07-29T03:07:45;22.85;;;6.95;;
72335;SDS011;62171;48.446;8.834;2022-07-29T03:10:13;20.52;;;6.28;;
72335;SDS011;62171;48.446;8.834;2022-07-29T03:12:39;12.05;;;6.45;;
72335;SDS011;62171;48.446;8.834;2022-07-29T03:15:05;29.17;;;6.45;;
72335;SDS011;62171;48.446;8.834;2022-07-29T03:17:32;20.40;;;6.05;;
72335;SDS011;62171;48.446;8.834;2022-07-29T03:19:58;15.57;;;6.13;;
72335;SDS011;62171;48.446;8.834;2022-07-29T03:22:25;30.92;;;7.55;;
72335;SDS011;62171;48.446;8.834;2022-07-29T03:24:50;38.63;;;8.10;;
72335;SDS011;62171;48.446;8.834;2022-07-29T03:27:16;34.83;;;7.88;;
72335;SDS011;62171;48.446;8.834;2022-07-29T03:29:41;29.50;;;6.95;;
72335;SDS011;62171;48.446;8.834;2022-07-29T03:32:07;35.95;;;7.32;;
72335;SDS011;62171;48.446;8.834;2022-07-29T03:34:33;44.15;;;7.85;;
72335;SDS011;62171;48.446;8.834;2022-07-29T03:36:58;67.03;;;9.23;;
72335;SDS011;62171;48.446;8.834;2022-07-29T03:39:25;53.25;;;9.77;;
72335;SDS011;62171;48.446;8.834;2022-07-29T03:41:55;52.47;;;8.70;;
72335;SDS011;62171;48.446;8.834;2022-07-29T03:44:21;48.85;;;8.63;;
72335;SDS011;62171;48.446;8.834;2022-07-29T03:46:48;44.45;;;9.77;;
72335;SDS011;62171;48.446;8.834;2022-07-29T03:49:15;43.30;;;9.80;;
72335;SDS011;62171;48.446;8.834;2022-07-29T03:51:41;11.10;;;8.80;;
72335;SDS011;62171;48.446;8.834;2022-07-29T03:54:08;16.52;;;8.55;;
72335;SDS011;62171;48.446;8.834;2022-07-29T03:56:34;22.25;;;8.35;;
72335;SDS011;62171;48.446;8.834;2022-07-29T03:59:03;53.85;;;9.13;;
72335;SDS011;62171;48.446;8.834;2022-07-29T04:01:29;38.97;;;8.55;;
72335;SDS011;62171;48.446;8.834;2022-07-29T04:03:57;28.83;;;7.85;;
72335;SDS011;62171;48.446;8.834;2022-07-29T04:06:23;43.08;;;8.30;;
72335;SDS011;62171;48.446;8.834;2022-07-29T04:08:48;15.38;;;7.35;;
72335;SDS011;62171;48.446;8.834;2022-07-29T04:11:13;44.67;;;7.70;;
72335;SDS011;62171;48.446;8.834;2022-07-29T04:13:39;88.07;;;10.68;;
72335;SDS011;62171;48.446;8.834;2022-07-29T04:16:04;14.50;;;7.53;;
72335;SDS011;62171;48.446;8.834;2022-07-29T04:18:30;20.40;;;8.88;;
72335;SDS011;62171;48.446;8.834;2022-07-29T04:20:55;22.73;;;9.13;;
72335;SDS011;62171;48.446;8.834;2022-07-29T04:23:21;57.08;;;8.00;;
72335;SDS011;62171;48.446;8.834;2022-07-29T04:25:46;24.95;;;7.50;;
72335;SDS011;62171;48.446;8.834;2022-07-29T04:28:12;57.75;;;7.85;;
72335;SDS011;62171;48.446;8.834;2022-07-29T04:30:37;36.53;;;7.63;;
72335;SDS011;62171;48.446;8.834;2022-07-29T04:33:04;14.43;;;6.50;;
72335;SDS011;62171;48.446;8.834;2022-07-29T04:35:31;11.88;;;6.40;;
72335;SDS011;62171;48.446;8.834;2022-07-29T04:38:00;61.67;;;8.65;;
72335;SDS011;62171;48.446;8.834;2022-07-29T04:40:25;25.35;;;8.10;;
72335;SDS011;62171;48.446;8.834;2022-07-29T04:42:50;9.38;;;6.32;;
72335;SDS011;62171;48.446;8.834;2022-07-29T04:45:16;22.50;;;7.28;;
72335;SDS011;62171;48.446;8.834;2022-07-29T04:47:42;11.77;;;6.55;;
72335;SDS011;62171;48.446;8.834;2022-07-29T04:50:08;12.88;;;6.95;;
72335;SDS011;62171;48.446;8.834;2022-07-29T04:52:34;11.85;;;7.30;;
72335;SDS011;62171;48.446;8.834;2022-07-29T04:55:00;13.55;;;5.70;;
72335;SDS011;62171;48.446;8.834;2022-07-29T04:57:26;9.35;;;7.03;;
72335;SDS011;62171;48.446;8.834;2022-07-29T04:59:51;18.80;;;6.47;;
72335;SDS011;62171;48.446;8.834;2022-07-29T05:02:17;73.15;;;7.80;;
72335;SDS011;62171;48.446;8.834;2022-07-29T05:04:42;45.58;;;7.50;;
72335;SDS011;62171;48.446;8.834;2022-07-29T05:07:08;9.02;;;5.40;;
72335;SDS011;62171;48.446;8.834;2022-07-29T05:09:33;15.07;;;6.47;;
72335;SDS011;62171;48.446;8.834;2022-07-29T05:11:58;12.57;;;6.32;;
72335;SDS011;62171;48.446;8.834;2022-07-29T05:14:24;8.15;;;5.00;;
72335;SDS011;62171;48.446;8.834;2022-07-29T05:16:49;6.57;;;4.85;;
72335;SDS011;62171;48.446;8.834;2022-07-29T05:19:16;11.57;;;5.63;;
72335;SDS011;62171;48.446;8.834;2022-07-29T05:21:42;4.28;;;3.88;;
72335;SDS011;62171;48.446;8.834;2022-07-29T05:24:07;6.60;;;4.10;;
72335;SDS011;62171;48.446;8.834;2022-07-29T05:26:33;7.47;;;5.32;;
72335;SDS011;62171;48.446;8.834;2022-07-29T05:28:58;5.43;;;4.90;;
72335;SDS011;62171;48.446;8.834;2022-07-29T05:31:24;7.15;;;4.03;;
72335;SDS011;62171;48.446;8.834;2022-07-29T05:33:49;5.82;;;4.93;;
72335;SDS011;62171;48.446;8.834;2022-07-29T05:36:14;5.45;;;4.40;;
72335;SDS011;62171;48.446;8.834;2022-07-29T05:38:40;9.38;;;4.70;;
72335;SDS011;62171;48.446;8.834;2022-07-29T05:41:05;5.82;;;4.78;;
72335;SDS011;62171;48.446;8.834;2022-07-29T05:43:31;4.85;;;4.38;;
72335;SDS011;62171;48.446;8.834;2022-07-29T05:45:57;6.68;;;5.25;;
72335;SDS011;62171;48.446;8.834;2022-07-29T05:48:22;5.57;;;4.70;;
72335;SDS011;62171;48.446;8.834;2022-07-29T05:50:48;6.13;;;4.60;;
72335;SDS011;62171;48.446;8.834;2022-07-29T05:53:13;5.70;;;5.10;;
72335;SDS011;62171;48.446;8.834;2022-07-29T05:55:39;6.03;;;5.25;;
72335;SDS011;62171;48.446;8.834;2022-07-29T05:58:04;5.80;;;5.20;;
72335;SDS011;62171;48.446;8.834;2022-07-29T06:00:29;8.32;;;5.25;;
72335;SDS011;62171;48.446;8.834;2022-07-29T06:02:55;5.72;;;5.13;;
72335;SDS011;62171;48.446;8.834;2022-07-29T06:05:21;9.77;;;5.60;;
72335;SDS011;62171;48.446;8.834;2022-07-29T06:07:47;6.05;;;4.93;;
72335;SDS011;62171;48.446;8.834;2022-07-29T06:10:12;5.88;;;5.28;;
72335;SDS011;62171;48.446;8.834;2022-07-29T06:12:38;6.00;;;5.15;;
72335;SDS011;62171;48.446;8.834;2022-07-29T06:15:03;6.18;;;5.57;;
72335;SDS011;62171;48.446;8.834;2022-07-29T06:17:29;8.68;;;7.63;;
72335;SDS011;62171;48.446;8.834;2022-07-29T06:19:54;13.73;;;9.25;;
72335;SDS011;62171;48.446;8.834;2022-07-29T06:22:20;17.80;;;14.18;;
72335;SDS011;62171;48.446;8.834;2022-07-29T06:24:45;9.85;;;8.52;;
72335;SDS011;62171;48.446;8.834;2022-07-29T06:27:11;34.67;;;25.17;;
72335;SDS011;62171;48.446;8.834;2022-07-29T06:29:36;24.67;;;18.35;;
72335;SDS011;62171;48.446;8.834;2022-07-29T06:32:02;34.47;;;22.83;;
72335;SDS011;62171;48.446;8.834;2022-07-29T06:34:28;26.63;;;19.02;;
72335;SDS011;62171;48.446;8.834;2022-07-29T06:36:53;26.33;;;20.08;;
72335;SDS011;62171;48.446;8.834;2022-07-29T06:39:19;21.50;;;16.02;;
72335;SDS011;62171;48.446;8.834;2022-07-29T06:41:48;32.63;;;25.55;;
72335;SDS011;62171;48.446;8.834;2022-07-29T06:44:15;34.17;;;27.90;;
72335;SDS011;62171;48.446;8.834;2022-07-29T06:46:42;36.30;;;29.98;;
72335;SDS011;62171;48.446;8.834;2022-07-29T06:49:08;32.83;;;25.88;;
72335;SDS011;62171;48.446;8.834;2022-07-29T06:51:34;33.35;;;25.67;;
72335;SDS011;62171;48.446;8.834;2022-07-29T06:54:01;33.92;;;25.95;;
72335;SDS011;62171;48.446;8.834;2022-07-29T06:56:30;25.77;;;19.70;;
72335;SDS011;62171;48.446;8.834;2022-07-29T06:58:56;23.15;;;18.20;;
72335;SDS011;62171;48.446;8.834;2022-07-29T07:01:22;26.38;;;20.33;;
72335;SDS011;62171;48.446;8.834;2022-07-29T07:03:47;23.75;;;18.52;;
72335;SDS011;62171;48.446;8.834;2022-07-29T07:06:12;19.55;;;16.13;;
72335;SDS011;62171;48.446;8.834;2022-07-29T07:08:38;16.67;;;14.32;;
72335;SDS011;62171;48.446;8.834;2022-07-29T07:11:03;17.52;;;13.95;;
72335;SDS011;62171;48.446;8.834;2022-07-29T07:13:29;18.00;;;14.60;;
72335;SDS011;62171;48.446;8.834;2022-07-29T07:15:59;14.57;;;11.50;;
72335;SDS011;62171;48.446;8.834;2022-07-29T07:18:24;10.98;;;9.10;;
72335;SDS011;62171;48.446;8.834;2022-07-29T07:20:49;9.15;;;7.70;;
72335;SDS011;62171;48.446;8.834;2022-07-29T07:23:15;8.98;;;5.65;;
72335;SDS011;62171;48.446;8.834;2022-07-29T07:25:40;7.13;;;5.32;;
72335;SDS011;62171;48.446;8.834;2022-07-29T07:28:05;5.93;;;5.15;;
72335;SDS011;62171;48.446;8.834;2022-07-29T07:30:31;8.30;;;4.88;;
72335;SDS011;62171;48.446;8.834;2022-07-29T07:32:56;5.30;;;4.47;;
72335;SDS011;62171;48.446;8.834;2022-07-29T07:35:22;6.65;;;4.20;;
72335;SDS011;62171;48.446;8.834;2022-07-29T07:37:47;9.05;;;4.32;;
72335;SDS011;62171;48.446;8.834;2022-07-29T07:40:13;6.85;;;3.72;;
72335;SDS011;62171;48.446;8.834;2022-07-29T07:42:39;4.47;;;4.07;;
72335;SDS011;62171;48.446;8.834;2022-07-29T07:45:05;4.70;;;3.92;;
72335;SDS011;62171;48.446;8.834;2022-07-29T07:47:31;7.57;;;4.00;;
72335;SDS011;62171;48.446;8.834;2022-07-29T07:49:57;6.65;;;4.30;;
72335;SDS011;62171;48.446;8.834;2022-07-29T07:52:23;6.22;;;4.22;;
72335;SDS011;62171;48.446;8.834;2022-07-29T07:54:48;7.75;;;4.35;;
72335;SDS011;62171;48.446;8.834;2022-07-29T07:57:14;3.85;;;3.55;;
72335;SDS011;62171;48.446;8.834;2022-07-29T07:59:40;5.03;;;3.90;;
72335;SDS011;62171;48.446;8.834;2022-07-29T08:02:06;5.65;;;4.40;;
72335;SDS011;62171;48.446;8.834;2022-07-29T08:04:32;4.80;;;4.18;;
72335;SDS011;62171;48.446;8.834;2022-07-29T08:06:58;4.72;;;4.28;;
72335;SDS011;62171;48.446;8.834;2022-07-29T08:09:25;8.07;;;4.20;;
72335;SDS011;62171;48.446;8.834;2022-07-29T08:11:51;5.82;;;4.10;;
72335;SDS011;62171;48.446;8.834;2022-07-29T08:14:17;15.85;;;11.48;;
72335;SDS011;62171;48.446;8.834;2022-07-29T08:16:43;26.13;;;14.60;;
72335;SDS011;62171;48.446;8.834;2022-07-29T08:19:09;17.40;;;10.52;;
72335;SDS011;62171;48.446;8.834;2022-07-29T08:21:34;10.13;;;6.63;;
72335;SDS011;62171;48.446;8.834;2022-07-29T08:24:00;6.07;;;4.10;;
72335;SDS011;62171;48.446;8.834;2022-07-29T08:26:44;6.35;;;3.83;;
72335;SDS011;62171;48.446;8.834;2022-07-29T08:29:10;5.07;;;4.00;;
72335;SDS011;62171;48.446;8.834;2022-07-29T08:31:36;4.75;;;4.13;;
72335;SDS011;62171;48.446;8.834;2022-07-29T08:34:02;6.78;;;4.60;;
72335;SDS011;62171;48.446;8.834;2022-07-29T08:36:28;5.80;;;3.60;;
72335;SDS011;62171;48.446;8.834;2022-07-29T08:38:54;9.40;;;5.55;;
72335;SDS011;62171;48.446;8.834;2022-07-29T08:41:20;18.50;;;11.93;;
72335;SDS011;62171;48.446;8.834;2022-07-29T08:43:46;8.52;;;4.65;;
72335;SDS011;62171;48.446;8.834;2022-07-29T08:46:12;5.82;;;3.50;;
72335;SDS011;62171;48.446;8.834;2022-07-29T08:48:38;4.18;;;3.67;;
72335;SDS011;62171;48.446;8.834;2022-07-29T08:51:04;5.28;;;3.42;;
72335;SDS011;62171;48.446;8.834;2022-07-29T08:53:31;5.80;;;4.70;;
72335;SDS011;62171;48.446;8.834;2022-07-29T08:55:57;6.00;;;4.18;;
72335;SDS011;62171;48.446;8.834;2022-07-29T08:58:23;4.20;;;3.47;;
72335;SDS011;62171;48.446;8.834;2022-07-29T09:00:54;7.07;;;3.60;;
72335;SDS011;62171;48.446;8.834;2022-07-29T09:03:22;5.50;;;3.13;;
72335;SDS011;62171;48.446;8.834;2022-07-29T09:05:49;5.32;;;3.00;;
72335;SDS011;62171;48.446;8.834;2022-07-29T09:08:16;7.07;;;3.35;;
72335;SDS011;62171;48.446;8.834;2022-07-29T09:10:42;7.07;;;4.00;;
72335;SDS011;62171;48.446;8.834;2022-07-29T09:13:08;4.25;;;3.00;;
72335;SDS011;62171;48.446;8.834;2022-07-29T09:15:34;17.38;;;11.40;;
72335;SDS011;62171;48.446;8.834;2022-07-29T09:17:59;6.22;;;3.20;;
72335;SDS011;62171;48.446;8.834;2022-07-29T09:20:25;7.25;;;2.72;;
72335;SDS011;62171;48.446;8.834;2022-07-29T09:23:11;6.15;;;3.13;;
72335;SDS011;62171;48.446;8.834;2022-07-29T09:25:38;5.38;;;2.90;;
72335;SDS011;62171;48.446;8.834;2022-07-29T09:28:06;4.78;;;3.30;;
72335;SDS011;62171;48.446;8.834;2022-07-29T09:30:33;6.75;;;4.57;;
72335;SDS011;62171;48.446;8.834;2022-07-29T09:32:58;16.33;;;11.88;;
72335;SDS011;62171;48.446;8.834;2022-07-29T09:35:27;4.25;;;2.78;;
72335;SDS011;62171;48.446;8.834;2022-07-29T09:37:53;4.97;;;2.97;;
72335;SDS011;62171;48.446;8.834;2022-07-29T09:40:19;5.05;;;3.22;;
72335;SDS011;62171;48.446;8.834;2022-07-29T09:42:47;7.07;;;4.63;;
72335;SDS011;62171;48.446;8.834;2022-07-29T09:45:13;7.07;;;4.03;;
72335;SDS011;62171;48.446;8.834;2022-07-29T09:47:51;7.13;;;2.67;;
72335;SDS011;62171;48.446;8.834;2022-07-29T09:50:16;5.70;;;2.72;;
72335;SDS011;62171;48.446;8.834;2022-07-29T09:52:49;4.55;;;3.13;;
72335;SDS011;62171;48.446;8.834;2022-07-29T09:55:16;11.02;;;9.52;;
72335;SDS011;62171;48.446;8.834;2022-07-29T09:57:42;3.58;;;2.70;;
72335;SDS011;62171;48.446;8.834;2022-07-29T10:02:36;4.32;;;2.72;;
72335;SDS011;62171;48.446;8.834;2022-07-29T10:05:04;5.93;;;3.55;;
72335;SDS011;62171;48.446;8.834;2022-07-29T10:07:44;5.90;;;4.15;;
72335;SDS011;62171;48.446;8.834;2022-07-29T10:13:13;3.75;;;2.97;;
72335;SDS011;62171;48.446;8.834;2022-07-29T10:15:40;5.90;;;2.80;;
72335;SDS011;62171;48.446;8.834;2022-07-29T10:18:08;3.33;;;3.03;;
72335;SDS011;62171;48.446;8.834;2022-07-29T10:20:35;3.45;;;2.70;;
72335;SDS011;62171;48.446;8.834;2022-07-29T10:23:00;4.30;;;2.72;;
72335;SDS011;62171;48.446;8.834;2022-07-29T10:25:26;5.57;;;3.63;;
72335;SDS011;62171;48.446;8.834;2022-07-29T10:27:52;7.00;;;2.78;;
72335;SDS011;62171;48.446;8.834;2022-07-29T10:30:18;6.18;;;3.10;;
72335;SDS011;62171;48.446;8.834;2022-07-29T10:32:55;4.70;;;2.90;;
72335;SDS011;62171;48.446;8.834;2022-07-29T10:41:06;3.63;;;2.63;;
72335;SDS011;62171;48.446;8.834;2022-07-29T10:43:51;3.05;;;2.75;;
72335;SDS011;62171;48.446;8.834;2022-07-29T10:46:18;3.63;;;3.22;;
72335;SDS011;62171;48.446;8.834;2022-07-29T10:54:13;4.40;;;3.00;;
72335;SDS011;62171;48.446;8.834;2022-07-29T10:56:40;7.75;;;2.80;;
72335;SDS011;62171;48.446;8.834;2022-07-29T11:01:43;6.00;;;2.50;;
72335;SDS011;62171;48.446;8.834;2022-07-29T11:04:09;5.55;;;2.95;;
72335;SDS011;62171;48.446;8.834;2022-07-29T11:09:29;6.15;;;2.85;;
72335;SDS011;62171;48.446;8.834;2022-07-29T11:11:55;4.47;;;2.95;;
72335;SDS011;62171;48.446;8.834;2022-07-29T11:17:18;4.18;;;2.88;;
72335;SDS011;62171;48.446;8.834;2022-07-29T11:19:43;3.30;;;2.67;;
72335;SDS011;62171;48.446;8.834;2022-07-29T11:22:09;4.30;;;2.75;;
72335;SDS011;62171;48.446;8.834;2022-07-29T11:24:36;3.15;;;2.63;;
72335;SDS011;62171;48.446;8.834;2022-07-29T11:27:12;3.85;;;2.60;;
72335;SDS011;62171;48.446;8.834;2022-07-29T11:29:39;4.07;;;2.67;;
72335;SDS011;62171;48.446;8.834;2022-07-29T11:32:16;4.30;;;2.30;;
72335;SDS011;62171;48.446;8.834;2022-07-29T11:34:44;4.93;;;2.53;;
72335;SDS011;62171;48.446;8.834;2022-07-29T11:44:53;4.50;;;2.78;;
72335;SDS011;62171;48.446;8.834;2022-07-29T11:47:24;3.58;;;2.75;;
72335;SDS011;62171;48.446;8.834;2022-07-29T11:49:50;5.07;;;2.80;;
72335;SDS011;62171;48.446;8.834;2022-07-29T11:52:17;5.68;;;2.40;;
72335;SDS011;62171;48.446;8.834;2022-07-29T11:54:43;3.03;;;2.65;;
72335;SDS011;62171;48.446;8.834;2022-07-29T11:57:10;2.72;;;2.40;;
72335;SDS011;62171;48.446;8.834;2022-07-29T11:59:39;5.40;;;2.47;;
72335;SDS011;62171;48.446;8.834;2022-07-29T12:02:06;3.47;;;2.22;;
72335;SDS011;62171;48.446;8.834;2022-07-29T12:04:33;4.55;;;2.80;;
72335;SDS011;62171;48.446;8.834;2022-07-29T12:06:59;3.25;;;2.55;;
72335;SDS011;62171;48.446;8.834;2022-07-29T12:09:25;4.75;;;2.80;;
72335;SDS011;62171;48.446;8.834;2022-07-29T12:11:57;3.75;;;2.60;;
72335;SDS011;62171;48.446;8.834;2022-07-29T12:14:27;4.85;;;2.63;;
72335;SDS011;62171;48.446;8.834;2022-07-29T12:16:54;5.13;;;2.30;;
72335;SDS011;62171;48.446;8.834;2022-07-29T12:19:19;4.25;;;2.13;;
72335;SDS011;62171;48.446;8.834;2022-07-29T12:21:48;2.55;;;2.20;;
72335;SDS011;62171;48.446;8.834;2022-07-29T12:24:14;5.13;;;2.60;;
72335;SDS011;62171;48.446;8.834;2022-07-29T12:26:53;5.30;;;2.50;;
72335;SDS011;62171;48.446;8.834;2022-07-29T12:29:22;3.67;;;2.50;;
72335;SDS011;62171;48.446;8.834;2022-07-29T12:31:51;3.42;;;2.13;;
72335;SDS011;62171;48.446;8.834;2022-07-29T12:34:19;2.55;;;2.30;;
72335;SDS011;62171;48.446;8.834;2022-07-29T12:36:46;5.28;;;2.30;;
72335;SDS011;62171;48.446;8.834;2022-07-29T12:39:12;5.60;;;2.38;;
72335;SDS011;62171;48.446;8.834;2022-07-29T12:41:37;4.03;;;2.50;;
72335;SDS011;62171;48.446;8.834;2022-07-29T12:44:03;4.68;;;2.47;;
72335;SDS011;62171;48.446;8.834;2022-07-29T12:46:29;3.83;;;2.60;;
72335;SDS011;62171;48.446;8.834;2022-07-29T12:48:55;3.42;;;2.28;;
72335;SDS011;62171;48.446;8.834;2022-07-29T12:51:37;3.72;;;2.53;;
72335;SDS011;62171;48.446;8.834;2022-07-29T12:54:10;2.97;;;2.53;;
72335;SDS011;62171;48.446;8.834;2022-07-29T12:56:38;3.58;;;2.30;;
72335;SDS011;62171;48.446;8.834;2022-07-29T12:59:14;4.35;;;2.60;;
72335;SDS011;62171;48.446;8.834;2022-07-29T13:01:41;5.05;;;2.30;;
72335;SDS011;62171;48.446;8.834;2022-07-29T13:04:07;3.80;;;2.33;;
72335;SDS011;62171;48.446;8.834;2022-07-29T13:06:36;4.90;;;2.47;;
72335;SDS011;62171;48.446;8.834;2022-07-29T13:11:38;2.97;;;2.53;;
72335;SDS011;62171;48.446;8.834;2022-07-29T13:14:09;2.90;;;2.47;;
72335;SDS011;62171;48.446;8.834;2022-07-29T13:16:37;2.95;;;2.63;;
72335;SDS011;62171;48.446;8.834;2022-07-29T13:19:31;3.78;;;2.88;;
72335;SDS011;62171;48.446;8.834;2022-07-29T13:22:00;7.20;;;2.67;;
72335;SDS011;62171;48.446;8.834;2022-07-29T13:24:25;5.25;;;2.83;;
72335;SDS011;62171;48.446;8.834;2022-07-29T13:26:50;3.97;;;2.88;;
72335;SDS011;62171;48.446;8.834;2022-07-29T13:29:16;2.92;;;2.63;;
72335;SDS011;62171;48.446;8.834;2022-07-29T13:31:43;3.67;;;2.88;;
72335;SDS011;62171;48.446;8.834;2022-07-29T13:34:08;3.67;;;2.80;;
72335;SDS011;62171;48.446;8.834;2022-07-29T13:36:34;4.45;;;2.92;;
72335;SDS011;62171;48.446;8.834;2022-07-29T13:38:59;3.53;;;2.80;;
72335;SDS011;62171;48.446;8.834;2022-07-29T13:41:27;5.55;;;2.80;;
72335;SDS011;62171;48.446;8.834;2022-07-29T13:43:53;3.53;;;2.40;;
72335;SDS011;62171;48.446;8.834;2022-07-29T13:46:18;3.75;;;2.60;;
72335;SDS011;62171;48.446;8.834;2022-07-29T13:48:44;3.67;;;2.58;;
72335;SDS011;62171;48.446;8.834;2022-07-29T13:51:09;3.42;;;2.70;;
72335;SDS011;62171;48.446;8.834;2022-07-29T13:53:34;4.90;;;3.10;;
72335;SDS011;62171;48.446;8.834;2022-07-29T13:56:00;3.90;;;2.70;;
72335;SDS011;62171;48.446;8.834;2022-07-29T13:58:25;2.78;;;2.35;;
72335;SDS011;62171;48.446;8.834;2022-07-29T14:00:51;4.22;;;2.70;;
72335;SDS011;62171;48.446;8.834;2022-07-29T14:03:16;3.00;;;2.40;;
72335;SDS011;62171;48.446;8.834;2022-07-29T14:05:42;3.80;;;2.30;;
72335;SDS011;62171;48.446;8.834;2022-07-29T14:08:07;3.00;;;2.70;;
72335;SDS011;62171;48.446;8.834;2022-07-29T14:10:33;2.40;;;2.20;;
72335;SDS011;62171;48.446;8.834;2022-07-29T14:12:58;3.78;;;2.67;;
72335;SDS011;62171;48.446;8.834;2022-07-29T14:15:23;3.05;;;2.53;;
72335;SDS011;62171;48.446;8.834;2022-07-29T14:17:49;3.25;;;2.70;;
72335;SDS011;62171;48.446;8.834;2022-07-29T14:20:14;3.33;;;2.28;;
72335;SDS011;62171;48.446;8.834;2022-07-29T14:22:40;4.03;;;2.42;;
72335;SDS011;62171;48.446;8.834;2022-07-29T14:25:07;3.45;;;2.35;;
72335;SDS011;62171;48.446;8.834;2022-07-29T14:27:33;4.72;;;2.28;;
72335;SDS011;62171;48.446;8.834;2022-07-29T14:29:58;3.15;;;2.30;;
72335;SDS011;62171;48.446;8.834;2022-07-29T14:32:24;3.53;;;2.30;;
72335;SDS011;62171;48.446;8.834;2022-07-29T14:34:49;3.85;;;2.40;;
72335;SDS011;62171;48.446;8.834;2022-07-29T14:37:14;2.65;;;2.30;;
72335;SDS011;62171;48.446;8.834;2022-07-29T14:39:40;3.00;;;2.70;;
72335;SDS011;62171;48.446;8.834;2022-07-29T14:42:06;3.58;;;2.70;;
72335;SDS011;62171;48.446;8.834;2022-07-29T14:44:31;5.68;;;2.75;;
72335;SDS011;62171;48.446;8.834;2022-07-29T14:47:00;3.67;;;2.42;;
72335;SDS011;62171;48.446;8.834;2022-07-29T14:49:26;3.67;;;2.58;;
72335;SDS011;62171;48.446;8.834;2022-07-29T14:51:51;2.83;;;2.20;;
72335;SDS011;62171;48.446;8.834;2022-07-29T14:54:17;5.05;;;2.67;;
72335;SDS011;62171;48.446;8.834;2022-07-29T14:56:42;3.88;;;2.25;;
72335;SDS011;62171;48.446;8.834;2022-07-29T14:59:08;3.92;;;3.00;;
72335;SDS011;62171;48.446;8.834;2022-07-29T15:01:33;4.72;;;2.40;;
72335;SDS011;62171;48.446;8.834;2022-07-29T15:03:59;4.25;;;1.98;;
72335;SDS011;62171;48.446;8.834;2022-07-29T15:06:24;5.45;;;2.05;;
72335;SDS011;62171;48.446;8.834;2022-07-29T15:08:50;2.85;;;2.05;;
72335;SDS011;62171;48.446;8.834;2022-07-29T15:11:15;3.45;;;1.88;;
72335;SDS011;62171;48.446;8.834;2022-07-29T15:13:41;2.65;;;2.10;;
72335;SDS011;62171;48.446;8.834;2022-07-29T15:16:06;3.78;;;2.10;;
72335;SDS011;62171;48.446;8.834;2022-07-29T15:18:32;4.05;;;1.88;;
72335;SDS011;62171;48.446;8.834;2022-07-29T15:20:58;3.72;;;1.90;;
72335;SDS011;62171;48.446;8.834;2022-07-29T15:23:25;3.17;;;1.92;;
72335;SDS011;62171;48.446;8.834;2022-07-29T15:25:50;3.15;;;2.10;;
72335;SDS011;62171;48.446;8.834;2022-07-29T15:28:16;4.25;;;1.90;;
72335;SDS011;62171;48.446;8.834;2022-07-29T15:30:41;2.30;;;1.85;;
72335;SDS011;62171;48.446;8.834;2022-07-29T15:33:07;4.35;;;2.00;;